sensor_id;sensor_type;location;lat;lon;timestamp;temperature;humidity
49236;DHT22;35067;48.134;8.378;2023-01-25T18:27:45;0.10;99.90
49236;DHT22;35067;48.134;8.378;2023-01-25T18:29:53;0.10;99.90
49236;DHT22;35067;48.134;8.378;2023-01-25T18:32:01;0.10;99.90
49236;DHT22;35067;48.134;8.378;2023-01-25T18:34:02;0.10;99.90
49236;DHT22;35067;48.134;8.378;2023-01-25T18:36:03;0.20;99.90
49236;DHT22;35067;48.134;8.378;2023-01-25T18:38:04;0.20;99.90
49236;DHT22;35067;48.134;8.378;2023-01-25T18:40:06;0.10;99.90
49236;DHT22;35067;48.134;8.378;2023-01-25T18:42:07;0.00;99.90
49236;DHT22;35067;48.134;8.378;2023-01-25T18:44:08;-0.10;99.90
49236;DHT22;35067;48.134;8.378;2023-01-25T18:46:09;0.00;99.90
49236;DHT22;35067;48.134;8.378;2023-01-25T18:48:11;0.30;99.90
49236;DHT22;35067;48.134;8.378;2023-01-25T18:50:12;0.30;99.90
49236;DHT22;35067;48.134;8.378;2023-01-25T18:52:17;0.20;99.90
49236;DHT22;35067;48.134;8.378;2023-01-25T18:54:18;0.20;99.90
49236;DHT22;35067;48.134;8.378;2023-01-25T18:56:20;0.20;99.90
49236;DHT22;35067;48.134;8.378;2023-01-25T18:58:21;0.20;99.90
49236;DHT22;35067;48.134;8.378;2023-01-25T19:00:21;0.10;99.90
49236;DHT22;35067;48.134;8.378;2023-01-25T19:02:22;0.20;99.90
49236;DHT22;35067;48.134;8.378;2023-01-25T19:04:23;0.10;99.90
49236;DHT22;35067;48.134;8.378;2023-01-25T19:06:24;0.30;99.90
49236;DHT22;35067;48.134;8.378;2023-01-25T19:08:25;0.30;99.90
49236;DHT22;35067;48.134;8.378;2023-01-25T19:10:26;0.30;99.90
49236;DHT22;35067;48.134;8.378;2023-01-25T19:12:27;0.30;99.90
49236;DHT22;35067;48.134;8.378;2023-01-25T19:14:27;0.40;99.90
49236;DHT22;35067;48.134;8.378;2023-01-25T19:16:28;0.30;99.90
49236;DHT22;35067;48.134;8.378;2023-01-25T19:18:35;0.30;99.90
49236;DHT22;35067;48.134;8.378;2023-01-25T19:20:36;0.30;99.90
49236;DHT22;35067;48.134;8.378;2023-01-25T19:22:38;0.20;99.90
49236;DHT22;35067;48.134;8.378;2023-01-25T19:24:39;0.30;99.90
49236;DHT22;35067;48.134;8.378;2023-01-25T19:26:40;0.30;99.90
49236;DHT22;35067;48.134;8.378;2023-01-25T19:28:42;0.40;99.90
49236;DHT22;35067;48.134;8.378;2023-01-25T19:30:42;0.50;99.90
49236;DHT22;35067;48.134;8.378;2023-01-25T19:32:43;0.50;99.90
49236;DHT22;35067;48.134;8.378;2023-01-25T19:34:44;0.50;99.90
49236;DHT22;35067;48.134;8.378;2023-01-25T19:36:44;0.60;99.90
49236;DHT22;35067;48.134;8.378;2023-01-25T19:38:49;0.30;99.90
49236;DHT22;35067;48.134;8.378;2023-01-25T19:40:50;-0.10;99.90
49236;DHT22;35067;48.134;8.378;2023-01-25T19:42:51;-0.10;99.90
49236;DHT22;35067;48.134;8.378;2023-01-25T19:44:51;0.00;99.90
49236;DHT22;35067;48.134;8.378;2023-01-25T19:46:52;0.20;99.90
49236;DHT22;35067;48.134;8.378;2023-01-25T19:48:53;0.20;99.90
49236;DHT22;35067;48.134;8.378;2023-01-25T19:50:54;0.20;99.90
49236;DHT22;35067;48.134;8.378;2023-01-25T19:53:05;0.20;99.90
49236;DHT22;35067;48.134;8.378;2023-01-25T19:55:06;0.30;99.90
49236;DHT22;35067;48.134;8.378;2023-01-25T19:57:07;0.30;99.90
49236;DHT22;35067;48.134;8.378;2023-01-25T19:59:14;0.40;99.90
49236;DHT22;35067;48.134;8.378;2023-01-25T20:01:18;0.30;99.90
49236;DHT22;35067;48.134;8.378;2023-01-25T20:03:20;0.20;99.90
49236;DHT22;35067;48.134;8.378;2023-01-25T20:05:21;0.30;99.90
49236;DHT22;35067;48.134;8.378;2023-01-25T20:07:22;0.40;99.90
49236;DHT22;35067;48.134;8.378;2023-01-25T20:09:22;0.40;99.90
49236;DHT22;35067;48.134;8.378;2023-01-25T20:11:28;0.50;99.90
49236;DHT22;35067;48.134;8.378;2023-01-25T20:13:31;0.60;99.90
49236;DHT22;35067;48.134;8.378;2023-01-25T20:15:32;0.60;99.90
49236;DHT22;35067;48.134;8.378;2023-01-25T20:17:32;0.40;99.90
49236;DHT22;35067;48.134;8.378;2023-01-25T20:19:33;0.50;99.90
49236;DHT22;35067;48.134;8.378;2023-01-25T20:21:36;0.60;99.90
49236;DHT22;35067;48.134;8.378;2023-01-25T20:23:41;0.60;99.90
49236;DHT22;35067;48.134;8.378;2023-01-25T20:25:42;0.60;99.90
49236;DHT22;35067;48.134;8.378;2023-01-25T20:27:43;0.60;99.90
49236;DHT22;35067;48.134;8.378;2023-01-25T20:29:43;0.70;99.90
49236;DHT22;35067;48.134;8.378;2023-01-25T20:31:45;0.70;99.90
49236;DHT22;35067;48.134;8.378;2023-01-25T20:33:46;0.60;99.90
49236;DHT22;35067;48.134;8.378;2023-01-25T20:35:47;0.60;99.90
49236;DHT22;35067;48.134;8.378;2023-01-25T20:37:49;0.50;99.90
49236;DHT22;35067;48.134;8.378;2023-01-25T20:39:50;0.50;99.90
49236;DHT22;35067;48.134;8.378;2023-01-25T20:41:50;0.40;99.90
49236;DHT22;35067;48.134;8.378;2023-01-25T20:43:55;0.20;99.90
49236;DHT22;35067;48.134;8.378;2023-01-25T20:46:09;0.20;99.90
49236;DHT22;35067;48.134;8.378;2023-01-25T20:48:10;0.10;99.90
49236;DHT22;35067;48.134;8.378;2023-01-25T20:50:11;0.00;99.90
49236;DHT22;35067;48.134;8.378;2023-01-25T20:52:11;0.00;99.90
49236;DHT22;35067;48.134;8.378;2023-01-25T20:54:13;-0.10;99.90
49236;DHT22;35067;48.134;8.378;2023-01-25T20:56:16;0.00;99.90
49236;DHT22;35067;48.134;8.378;2023-01-25T20:58:17;0.10;99.90
49236;DHT22;35067;48.134;8.378;2023-01-25T21:00:18;0.00;99.90
49236;DHT22;35067;48.134;8.378;2023-01-25T21:02:19;0.10;99.90
49236;DHT22;35067;48.134;8.378;2023-01-25T21:04:20;0.20;99.90
49236;DHT22;35067;48.134;8.378;2023-01-25T21:06:21;0.30;99.90
49236;DHT22;35067;48.134;8.378;2023-01-25T21:08:25;0.30;99.90
49236;DHT22;35067;48.134;8.378;2023-01-25T21:10:27;0.30;99.90
49236;DHT22;35067;48.134;8.378;2023-01-25T21:12:29;0.20;99.90
49236;DHT22;35067;48.134;8.378;2023-01-25T21:14:30;0.20;99.90
49236;DHT22;35067;48.134;8.378;2023-01-25T21:16:31;0.20;99.90
49236;DHT22;35067;48.134;8.378;2023-01-25T21:18:36;0.20;99.90
49236;DHT22;35067;48.134;8.378;2023-01-25T21:20:37;0.30;99.90
49236;DHT22;35067;48.134;8.378;2023-01-25T21:22:38;0.30;99.90
49236;DHT22;35067;48.134;8.378;2023-01-25T21:24:39;0.30;99.90
49236;DHT22;35067;48.134;8.378;2023-01-25T21:26:39;0.30;99.90
49236;DHT22;35067;48.134;8.378;2023-01-25T21:28:40;0.30;99.90
49236;DHT22;35067;48.134;8.378;2023-01-25T21:30:41;0.30;99.90
49236;DHT22;35067;48.134;8.378;2023-01-25T21:32:42;0.30;99.90
49236;DHT22;35067;48.134;8.378;2023-01-25T21:34:42;0.40;99.90
49236;DHT22;35067;48.134;8.378;2023-01-25T21:36:43;0.20;99.90
49236;DHT22;35067;48.134;8.378;2023-01-25T21:38:46;0.20;99.90
49236;DHT22;35067;48.134;8.378;2023-01-25T21:40:47;0.20;99.90
49236;DHT22;35067;48.134;8.378;2023-01-25T21:42:48;0.10;99.90
49236;DHT22;35067;48.134;8.378;2023-01-25T21:44:49;0.10;99.90
49236;DHT22;35067;48.134;8.378;2023-01-25T21:47:08;0.10;99.90
49236;DHT22;35067;48.134;8.378;2023-01-25T21:49:11;0.00;99.90
49236;DHT22;35067;48.134;8.378;2023-01-25T21:51:30;0.10;99.90
49236;DHT22;35067;48.134;8.378;2023-01-25T21:53:38;0.00;99.90
49236;DHT22;35067;48.134;8.378;2023-01-25T21:55:39;0.10;99.90
49236;DHT22;35067;48.134;8.378;2023-01-25T21:57:40;0.00;99.90
49236;DHT22;35067;48.134;8.378;2023-01-25T21:59:46;0.10;99.90
49236;DHT22;35067;48.134;8.378;2023-01-25T22:01:48;0.10;99.90
49236;DHT22;35067;48.134;8.378;2023-01-25T22:03:50;0.00;99.90
49236;DHT22;35067;48.134;8.378;2023-01-25T22:05:53;-0.20;99.90
49236;DHT22;35067;48.134;8.378;2023-01-25T22:07:54;-0.30;99.90
49236;DHT22;35067;48.134;8.378;2023-01-25T22:09:55;-0.20;99.90
49236;DHT22;35067;48.134;8.378;2023-01-25T22:11:55;-0.20;99.90
49236;DHT22;35067;48.134;8.378;2023-01-25T22:13:56;-0.10;99.90
49236;DHT22;35067;48.134;8.378;2023-01-25T22:16:00;-0.10;99.90
49236;DHT22;35067;48.134;8.378;2023-01-25T22:18:00;0.10;99.90
49236;DHT22;35067;48.134;8.378;2023-01-25T22:20:01;0.20;99.90
49236;DHT22;35067;48.134;8.378;2023-01-25T22:22:02;0.20;99.90
49236;DHT22;35067;48.134;8.378;2023-01-25T22:24:04;0.10;99.90
49236;DHT22;35067;48.134;8.378;2023-01-25T22:26:07;0.10;99.90
49236;DHT22;35067;48.134;8.378;2023-01-25T22:28:18;0.00;99.90
49236;DHT22;35067;48.134;8.378;2023-01-25T22:30:19;-0.20;99.90
49236;DHT22;35067;48.134;8.378;2023-01-25T22:32:19;-0.50;99.90
49236;DHT22;35067;48.134;8.378;2023-01-25T22:34:20;-0.50;99.90
49236;DHT22;35067;48.134;8.378;2023-01-25T22:36:22;-0.50;99.90
49236;DHT22;35067;48.134;8.378;2023-01-25T22:38:24;-0.40;99.90
49236;DHT22;35067;48.134;8.378;2023-01-25T22:40:25;-0.40;99.90
49236;DHT22;35067;48.134;8.378;2023-01-25T22:42:25;-0.40;99.90
49236;DHT22;35067;48.134;8.378;2023-01-25T22:44:26;-0.30;99.90
49236;DHT22;35067;48.134;8.378;2023-01-25T22:46:28;-0.20;99.90
49236;DHT22;35067;48.134;8.378;2023-01-25T22:48:29;-0.20;99.90
49236;DHT22;35067;48.134;8.378;2023-01-25T22:50:30;-0.10;99.90
49236;DHT22;35067;48.134;8.378;2023-01-25T22:52:31;0.00;99.90
49236;DHT22;35067;48.134;8.378;2023-01-25T22:54:31;0.00;99.90
49236;DHT22;35067;48.134;8.378;2023-01-25T22:56:33;0.10;99.90
49236;DHT22;35067;48.134;8.378;2023-01-25T22:58:35;0.10;99.90
49236;DHT22;35067;48.134;8.378;2023-01-25T23:00:37;-0.10;99.90
49236;DHT22;35067;48.134;8.378;2023-01-25T23:02:37;-0.20;99.90
49236;DHT22;35067;48.134;8.378;2023-01-25T23:04:38;-0.30;99.90
49236;DHT22;35067;48.134;8.378;2023-01-25T23:06:39;-0.30;99.90
49236;DHT22;35067;48.134;8.378;2023-01-25T23:08:40;-0.30;99.90
49236;DHT22;35067;48.134;8.378;2023-01-25T23:10:40;-0.20;99.90
49236;DHT22;35067;48.134;8.378;2023-01-25T23:12:41;-0.20;99.90
49236;DHT22;35067;48.134;8.378;2023-01-25T23:14:42;-0.20;99.90
49236;DHT22;35067;48.134;8.378;2023-01-25T23:16:53;-0.10;99.90
49236;DHT22;35067;48.134;8.378;2023-01-25T23:19:14;-0.30;99.90
49236;DHT22;35067;48.134;8.378;2023-01-25T23:21:16;-0.50;99.90
49236;DHT22;35067;48.134;8.378;2023-01-25T23:23:22;-0.50;99.90
49236;DHT22;35067;48.134;8.378;2023-01-25T23:25:22;-0.50;99.90
49236;DHT22;35067;48.134;8.378;2023-01-25T23:27:23;-0.50;99.90
49236;DHT22;35067;48.134;8.378;2023-01-25T23:29:24;-0.40;99.90
49236;DHT22;35067;48.134;8.378;2023-01-25T23:31:24;-0.40;99.90
49236;DHT22;35067;48.134;8.378;2023-01-25T23:33:27;-0.30;99.90
49236;DHT22;35067;48.134;8.378;2023-01-25T23:35:28;-0.30;99.90
49236;DHT22;35067;48.134;8.378;2023-01-25T23:37:29;-0.30;99.90
49236;DHT22;35067;48.134;8.378;2023-01-25T23:39:30;-0.30;99.90
49236;DHT22;35067;48.134;8.378;2023-01-25T23:41:31;-0.30;99.90
49236;DHT22;35067;48.134;8.378;2023-01-25T23:43:31;-0.40;99.90
49236;DHT22;35067;48.134;8.378;2023-01-25T23:45:32;-0.50;99.90
49236;DHT22;35067;48.134;8.378;2023-01-25T23:47:33;-0.40;99.90
49236;DHT22;35067;48.134;8.378;2023-01-25T23:49:34;-0.30;99.90
49236;DHT22;35067;48.134;8.378;2023-01-25T23:51:34;-0.40;99.90
49236;DHT22;35067;48.134;8.378;2023-01-25T23:53:36;-0.50;99.90
49236;DHT22;35067;48.134;8.378;2023-01-25T23:55:37;-0.40;99.90
49236;DHT22;35067;48.134;8.378;2023-01-25T23:57:38;-0.30;99.90
49236;DHT22;35067;48.134;8.378;2023-01-25T23:59:39;-0.40;99.90
